createdAt,value
2019-04-03T00:03:58.822Z,7.35
2019-04-03T00:09:06.586Z,9.88
2019-04-03T00:14:12.740Z,10.98
2019-04-03T00:19:17.789Z,9.03
2019-04-03T00:24:23.630Z,7.90
2019-04-03T00:29:28.283Z,7.78
2019-04-03T00:34:32.783Z,7.95
2019-04-03T00:39:37.187Z,8.03
2019-04-03T00:44:41.530Z,7.33
2019-04-03T00:49:45.910Z,8.75
2019-04-03T00:54:50.211Z,6.95
2019-04-03T00:59:56.343Z,9.40
2019-04-03T01:05:00.637Z,7.33
2019-04-03T01:10:05.816Z,7.37
2019-04-03T01:15:10.342Z,8.03
2019-04-03T01:20:14.731Z,8.33
2019-04-03T01:25:19.139Z,8.45
2019-04-03T01:30:23.632Z,7.33
2019-04-03T01:35:28.126Z,6.45
2019-04-03T01:40:32.498Z,7.37
2019-04-03T01:45:37.006Z,8.35
2019-04-03T01:50:41.551Z,7.50
2019-04-03T01:55:45.900Z,7.25
2019-04-03T02:00:50.253Z,8.68
2019-04-03T02:05:54.647Z,8.00
2019-04-03T02:10:58.992Z,8.68
2019-04-03T02:16:03.738Z,7.60
2019-04-03T02:21:08.078Z,7.60
2019-04-03T02:26:12.418Z,7.70
2019-04-03T02:31:19.078Z,8.15
2019-04-03T02:36:23.959Z,7.92
2019-04-03T02:41:28.384Z,8.33
2019-04-03T02:46:32.931Z,6.58
2019-04-03T02:51:37.532Z,7.53
2019-04-03T02:56:44.486Z,5.97
2019-04-03T03:01:48.119Z,6.55
2019-04-03T03:06:52.478Z,8.43
2019-04-03T03:11:57.213Z,6.83
2019-04-03T03:17:01.788Z,6.10
2019-04-03T03:22:06.123Z,6.22
2019-04-03T03:27:10.478Z,5.75
2019-04-03T03:32:20.049Z,5.95
2019-04-03T03:37:21.061Z,6.55
2019-04-03T03:42:30.091Z,6.08
2019-04-03T03:47:35.195Z,6.72
2019-04-03T03:52:39.200Z,14.47
2019-04-03T03:57:44.964Z,12.35
2019-04-03T04:02:49.792Z,16.95
2019-04-03T04:07:54.916Z,15.30
2019-04-03T04:12:59.274Z,20.37
2019-04-03T04:18:03.916Z,26.17
2019-04-03T04:23:08.774Z,43.30
2019-04-03T04:28:13.202Z,69.42
2019-04-03T04:33:17.868Z,77.95
2019-04-03T04:38:23.177Z,74.17
2019-04-03T04:43:27.683Z,58.25
2019-04-03T04:48:33.162Z,55.67
2019-04-03T04:53:37.543Z,52.75
2019-04-03T04:58:43.013Z,55.43
2019-04-03T05:03:47.880Z,44.77
2019-04-03T05:08:52.468Z,50.98
2019-04-03T05:13:56.936Z,52.03
2019-04-03T05:19:09.560Z,45.40
2019-04-03T05:24:12.686Z,47.95
2019-04-03T05:29:13.396Z,41.08
2019-04-03T05:34:17.757Z,37.80
2019-04-03T05:39:23.924Z,38.88
2019-04-03T05:44:28.239Z,41.48
2019-04-03T05:49:32.873Z,36.58
2019-04-03T05:54:39.386Z,38.23
2019-04-03T05:59:44.565Z,33.40
2019-04-03T06:04:49.164Z,29.70
2019-04-03T06:09:54.209Z,35.20
2019-04-03T06:14:59.778Z,25.57
2019-04-03T06:20:10.498Z,30.92
2019-04-03T06:25:14.150Z,30.17
2019-04-03T06:30:18.882Z,31.35
2019-04-03T06:35:23.331Z,27.95
2019-04-03T06:40:27.662Z,33.65
2019-04-03T06:45:32.098Z,27.30
2019-04-03T06:50:37.244Z,35.35
2019-04-03T06:55:41.678Z,29.05
2019-04-03T07:00:47.343Z,29.72
2019-04-03T07:05:52.158Z,30.35
2019-04-03T07:10:56.457Z,27.22
2019-04-03T07:16:01.882Z,24.52
2019-04-03T07:21:06.230Z,21.77
2019-04-03T07:26:10.601Z,28.60
2019-04-03T07:31:14.902Z,29.95
2019-04-03T07:36:19.295Z,27.35
2019-04-03T07:41:23.643Z,22.00
2019-04-03T07:46:27.968Z,26.55
2019-04-03T07:51:32.362Z,22.55
2019-04-03T07:56:36.897Z,26.73
2019-04-03T08:01:41.842Z,22.95
2019-04-03T08:06:46.257Z,22.10
2019-04-03T08:11:50.668Z,26.45
2019-04-03T08:16:56.881Z,28.47
2019-04-03T08:22:01.893Z,21.87
2019-04-03T08:27:08.198Z,24.12
2019-04-03T08:32:15.362Z,22.48
2019-04-03T08:37:28.467Z,21.70
2019-04-03T08:42:24.293Z,22.60
2019-04-03T08:47:28.667Z,19.17
2019-04-03T08:52:34.823Z,19.32
2019-04-03T08:57:39.165Z,22.02
2019-04-03T09:02:43.993Z,18.67
2019-04-03T09:07:48.681Z,18.60
2019-04-03T09:12:52.999Z,20.10
2019-04-03T09:17:57.395Z,22.13
2019-04-03T09:23:01.715Z,19.50
2019-04-03T09:28:06.224Z,21.20
2019-04-03T09:33:10.647Z,18.27
2019-04-03T09:38:15.217Z,20.25
2019-04-03T09:43:21.530Z,20.72
2019-04-03T09:48:25.555Z,16.95
2019-04-03T09:53:30.938Z,16.07
2019-04-03T09:58:36.736Z,17.73
2019-04-03T10:03:41.350Z,16.07
2019-04-03T10:08:45.895Z,15.63
2019-04-03T10:13:50.239Z,16.10
2019-04-03T10:18:55.782Z,17.25
2019-04-03T10:24:00.470Z,16.45
2019-04-03T10:29:04.883Z,16.23
2019-04-03T10:34:09.437Z,16.85
2019-04-03T10:39:14.606Z,17.62
2019-04-03T10:44:18.950Z,15.03
2019-04-03T10:49:23.271Z,14.70
2019-04-03T10:54:27.582Z,16.95
2019-04-03T10:59:31.931Z,17.87
2019-04-03T11:04:36.326Z,14.13
2019-04-03T11:09:40.658Z,17.02
2019-04-03T11:14:44.984Z,14.00
2019-04-03T11:19:49.572Z,16.10
2019-04-03T11:24:54.055Z,12.68
2019-04-03T11:29:58.487Z,15.50
2019-04-03T11:35:02.874Z,13.60
2019-04-03T11:40:09.496Z,14.07
2019-04-03T11:45:15.927Z,13.03
2019-04-03T11:50:20.319Z,11.65
2019-04-03T11:55:24.640Z,15.53
2019-04-03T12:00:39.860Z,13.00
2019-04-03T12:05:45.713Z,13.50
2019-04-03T12:10:50.270Z,12.37
2019-04-03T12:15:57.504Z,15.85
2019-04-03T12:21:00.937Z,12.93
2019-04-03T12:26:05.295Z,15.30
2019-04-03T12:31:09.603Z,11.83
2019-04-03T12:36:14.436Z,13.62
2019-04-03T12:41:19.131Z,10.50
2019-04-03T12:46:25.251Z,13.03
2019-04-03T12:51:31.517Z,13.25
2019-04-03T12:56:36.005Z,11.33
2019-04-03T13:01:42.423Z,11.18
2019-04-03T13:06:46.734Z,12.18
2019-04-03T13:11:51.094Z,14.28
2019-04-03T13:16:55.411Z,13.20
2019-04-03T13:21:59.735Z,11.33
2019-04-03T13:27:04.423Z,11.88
2019-04-03T13:32:08.703Z,11.50
2019-04-03T13:37:13.184Z,11.70
2019-04-03T13:42:17.580Z,10.98
2019-04-03T13:47:21.963Z,9.53
2019-04-03T13:52:39.069Z,13.03
2019-04-03T13:57:32.652Z,13.70
2019-04-03T14:02:37.433Z,13.40
2019-04-03T14:07:42.588Z,13.38
2019-04-03T14:12:48.401Z,13.38
2019-04-03T14:17:57.403Z,17.00
2019-04-03T14:23:02.999Z,15.80
2019-04-03T14:28:05.295Z,21.00
2019-04-03T14:33:10.116Z,22.17
2019-04-03T14:38:14.555Z,24.50
2019-04-03T14:43:18.956Z,17.45
2019-04-03T14:48:24.111Z,18.80
2019-04-03T14:53:29.234Z,18.92
2019-04-03T14:58:33.811Z,19.80
2019-04-03T15:03:38.278Z,18.02
2019-04-03T15:08:42.756Z,21.05
2019-04-03T15:13:49.501Z,19.98
2019-04-03T15:18:53.541Z,18.05
2019-04-03T15:23:58.797Z,21.05
2019-04-03T15:29:03.591Z,24.85
2019-04-03T15:34:08.078Z,27.17
2019-04-03T15:39:16.478Z,19.70
2019-04-03T15:44:21.011Z,23.38
2019-04-03T15:49:26.635Z,20.52
2019-04-03T15:54:33.077Z,21.57
2019-04-03T15:59:37.632Z,18.45
2019-04-03T16:04:41.985Z,15.05
2019-04-03T16:09:49.538Z,16.62
2019-04-03T16:14:53.079Z,17.30
2019-04-03T16:19:57.622Z,19.65
2019-04-03T16:25:02.202Z,17.50
2019-04-03T16:30:14.174Z,19.67
2019-04-03T16:35:19.666Z,20.72
2019-04-03T16:40:23.623Z,20.52
2019-04-03T16:45:28.199Z,21.05
2019-04-03T16:50:32.879Z,15.40
2019-04-03T16:55:37.566Z,25.55
2019-04-03T17:03:10.537Z,21.35
2019-04-03T17:06:19.967Z,15.88
2019-04-03T17:06:51.023Z,22.80
2019-04-03T17:07:22.487Z,20.92
2019-04-03T17:07:54.887Z,21.55
2019-04-03T17:08:26.997Z,18.85
2019-04-03T17:08:59.799Z,23.45
2019-04-03T17:14:36.923Z,21.05
2019-04-03T17:19:38.570Z,19.23
2019-04-03T17:24:44.212Z,18.95
2019-04-03T17:29:45.702Z,22.65
2019-04-03T17:34:46.787Z,16.35
2019-04-03T17:39:48.445Z,18.67
2019-04-03T17:44:50.221Z,21.02
2019-04-03T17:49:51.786Z,17.62
2019-04-03T17:54:53.197Z,14.63
2019-04-03T18:05:17.592Z,21.65
2019-04-03T18:05:49.805Z,17.62
2019-04-03T18:06:20.921Z,24.77
2019-04-03T18:08:02.885Z,24.40
2019-04-03T18:09:51.779Z,19.35
2019-04-03T18:10:22.830Z,18.77
2019-04-03T18:10:53.886Z,16.00
2019-04-03T18:11:26.594Z,17.65
2019-04-03T18:12:35.508Z,16.67
2019-04-03T18:13:23.974Z,20.82
2019-04-03T18:15:34.990Z,16.62
2019-04-03T18:16:06.048Z,18.62
2019-04-03T18:18:52.097Z,15.18
2019-04-03T18:24:46.776Z,15.25
2019-04-03T18:29:48.462Z,16.75
2019-04-03T18:34:54.713Z,15.05
2019-04-03T18:39:53.279Z,14.63
2019-04-03T18:44:57.511Z,18.20
2019-04-03T18:50:02.723Z,17.12
2019-04-03T18:55:01.706Z,15.00
2019-04-03T19:00:07.201Z,17.50
2019-04-03T19:05:13.474Z,19.10
2019-04-03T19:10:12.862Z,19.30
2019-04-03T19:15:14.456Z,11.75
2019-04-03T19:20:16.051Z,13.45
2019-04-03T19:25:18.872Z,13.55
2019-04-03T19:30:20.615Z,15.70
2019-04-03T19:35:22.202Z,14.85
2019-04-03T19:40:23.834Z,15.15
2019-04-03T19:45:25.391Z,13.15
2019-04-03T19:50:31.459Z,12.15
2019-04-03T19:55:30.603Z,15.10
2019-04-03T20:00:34.674Z,15.08
2019-04-03T20:05:35.592Z,12.58
2019-04-03T20:10:37.240Z,14.45
2019-04-03T20:15:38.752Z,14.60
2019-04-03T20:20:40.403Z,12.23
2019-04-03T20:25:41.916Z,15.98
2019-04-03T20:30:44.740Z,13.62
2019-04-03T20:35:49.463Z,12.68
2019-04-03T20:40:49.616Z,14.53
2019-04-03T20:45:51.211Z,14.33
2019-04-03T20:50:52.754Z,15.72
2019-04-03T20:55:55.935Z,13.65
2019-04-03T21:01:05.984Z,13.03
2019-04-03T21:06:00.951Z,14.70
2019-04-03T21:11:02.855Z,17.75
2019-04-03T21:16:04.590Z,16.12
2019-04-03T21:21:06.083Z,12.47
2019-04-03T21:26:07.634Z,14.43
2019-04-03T21:31:10.165Z,13.32
2019-04-03T21:36:11.672Z,14.90
2019-04-03T21:41:13.148Z,12.90
2019-04-03T21:46:14.728Z,12.75
2019-04-03T21:51:16.315Z,14.30
2019-04-03T21:56:17.819Z,13.20
2019-04-03T22:01:21.335Z,14.10
2019-04-03T22:06:22.923Z,12.73
2019-04-03T22:11:25.493Z,16.00
2019-04-03T22:16:27.055Z,12.40
2019-04-03T22:21:28.623Z,12.60
2019-04-03T22:26:30.093Z,14.18
2019-04-03T22:31:31.699Z,13.10
2019-04-03T22:36:33.662Z,14.43
2019-04-03T22:41:35.600Z,12.75
2019-04-03T22:46:37.092Z,12.65
2019-04-03T22:51:38.612Z,12.75
2019-04-03T22:56:40.104Z,12.10
2019-04-03T23:01:41.597Z,11.70
2019-04-03T23:06:43.193Z,11.85
2019-04-03T23:11:44.908Z,12.60
2019-04-03T23:16:46.833Z,11.68
2019-04-03T23:21:48.634Z,16.32
2019-04-03T23:26:50.573Z,13.28
2019-04-03T23:31:52.464Z,12.60
2019-04-03T23:36:54.829Z,12.60
2019-04-03T23:41:56.933Z,14.10
2019-04-03T23:46:58.777Z,11.93
2019-04-03T23:52:00.701Z,12.82
2019-04-03T23:57:02.492Z,12.25
